createdAt,value
2019-05-12T00:00:39.460Z,100.00
2019-05-12T00:01:38.781Z,100.00
2019-05-12T00:02:33.360Z,100.00
2019-05-12T00:03:30.343Z,100.00
2019-05-12T00:04:28.086Z,100.00
2019-05-12T00:05:24.500Z,100.00
2019-05-12T00:06:21.328Z,100.00
2019-05-12T00:07:18.355Z,100.00
2019-05-12T00:08:15.428Z,100.00
2019-05-12T00:09:12.418Z,100.00
2019-05-12T00:10:09.442Z,100.00
2019-05-12T00:11:08.801Z,100.00
2019-05-12T00:12:03.438Z,100.00
2019-05-12T00:13:00.462Z,100.00
2019-05-12T00:13:58.611Z,100.00
2019-05-12T00:14:54.434Z,100.00
2019-05-12T00:15:51.472Z,100.00
2019-05-12T00:16:49.139Z,100.00
2019-05-12T00:17:48.005Z,100.00
2019-05-12T00:18:42.484Z,100.00
2019-05-12T00:19:39.521Z,100.00
2019-05-12T00:20:38.496Z,100.00
2019-05-12T00:21:33.507Z,100.00
2019-05-12T00:22:30.568Z,100.00
2019-05-12T00:23:30.437Z,100.00
2019-05-12T00:24:24.505Z,100.00
2019-05-12T00:25:21.554Z,100.00
2019-05-12T00:26:18.716Z,100.00
2019-05-12T00:27:17.755Z,100.00
2019-05-12T00:28:12.643Z,100.00
2019-05-12T00:29:09.636Z,100.00
2019-05-12T00:30:09.923Z,100.00
2019-05-12T00:31:03.584Z,100.00
2019-05-12T00:32:00.600Z,100.00
2019-05-12T00:32:58.033Z,100.00
2019-05-12T00:33:54.672Z,100.00
2019-05-12T00:34:51.607Z,100.00
2019-05-12T00:35:48.645Z,100.00
2019-05-12T00:36:45.704Z,100.00
2019-05-12T00:37:42.641Z,100.00
2019-05-12T00:38:39.657Z,100.00
2019-05-12T00:39:38.262Z,100.00
2019-05-12T00:40:33.746Z,100.00
2019-05-12T00:41:30.664Z,100.00
2019-05-12T00:42:28.811Z,100.00
2019-05-12T00:43:24.739Z,100.00
2019-05-12T00:44:21.781Z,100.00
2019-05-12T00:45:18.714Z,100.00
2019-05-12T00:46:15.845Z,100.00
2019-05-12T00:47:12.808Z,100.00
2019-05-12T00:48:09.892Z,100.00
2019-05-12T00:49:08.051Z,100.00
2019-05-12T00:50:03.841Z,100.00
2019-05-12T00:51:00.859Z,100.00
2019-05-12T00:51:58.694Z,100.00
2019-05-12T00:52:54.899Z,100.00
2019-05-12T00:53:51.795Z,100.00
2019-05-12T00:54:48.911Z,100.00
2019-05-12T00:55:47.645Z,100.00
2019-05-12T00:56:42.891Z,100.00
2019-05-12T00:57:39.986Z,100.00
2019-05-12T00:58:38.232Z,100.00
2019-05-12T00:59:33.913Z,100.00
2019-05-12T01:00:30.905Z,100.00
2019-05-12T01:01:28.590Z,100.00
2019-05-12T01:02:24.979Z,100.00
2019-05-12T01:03:21.939Z,100.00
2019-05-12T01:04:18.952Z,100.00
2019-05-12T01:05:17.731Z,100.00
2019-05-12T01:06:13.052Z,100.00
2019-05-12T01:07:09.981Z,100.00
2019-05-12T01:08:09.163Z,100.00
2019-05-12T01:09:04.077Z,100.00
2019-05-12T01:10:03.141Z,100.00
2019-05-12T01:10:58.473Z,100.00
2019-05-12T01:11:55.140Z,100.00
2019-05-12T01:12:52.105Z,100.00
2019-05-12T01:13:49.019Z,100.00
2019-05-12T01:14:47.809Z,100.00
2019-05-12T01:15:43.110Z,100.00
2019-05-12T01:16:40.134Z,100.00
2019-05-12T01:17:40.017Z,100.00
2019-05-12T01:18:34.127Z,100.00
2019-05-12T01:19:31.141Z,100.00
2019-05-12T01:20:28.590Z,100.00
2019-05-12T01:21:25.206Z,100.00
2019-05-12T01:22:22.150Z,100.00
2019-05-12T01:23:23.062Z,100.00
2019-05-12T01:24:18.521Z,100.00
2019-05-12T01:25:13.198Z,100.00
2019-05-12T01:26:10.141Z,100.00
2019-05-12T01:27:08.616Z,100.00
2019-05-12T01:28:04.182Z,100.00
2019-05-12T01:29:01.301Z,100.00
2019-05-12T01:29:58.251Z,100.00
2019-05-12T01:30:55.285Z,100.00
2019-05-12T01:31:52.232Z,100.00
2019-05-12T01:32:49.256Z,100.00
2019-05-12T01:33:48.489Z,100.00
2019-05-12T01:34:43.235Z,100.00
2019-05-12T01:35:40.274Z,100.00
2019-05-12T01:36:38.099Z,100.00
2019-05-12T01:37:34.355Z,100.00
2019-05-12T01:38:31.291Z,100.00
2019-05-12T01:39:28.366Z,100.00
2019-05-12T01:40:25.352Z,100.00
2019-05-12T01:41:22.396Z,100.00
2019-05-12T01:42:19.338Z,100.00
2019-05-12T01:43:20.676Z,100.00
2019-05-12T01:44:13.413Z,100.00
2019-05-12T01:45:10.344Z,100.00
2019-05-12T01:46:08.063Z,100.00
2019-05-12T01:47:04.501Z,100.00
2019-05-12T01:48:01.447Z,100.00
2019-05-12T01:48:59.085Z,100.00
2019-05-12T01:49:57.971Z,100.00
2019-05-12T01:50:52.457Z,100.00
2019-05-12T01:51:49.495Z,100.00
2019-05-12T01:52:47.857Z,100.00
2019-05-12T01:53:43.672Z,100.00
2019-05-12T01:54:40.503Z,100.00
2019-05-12T01:55:38.598Z,100.00
2019-05-12T01:56:34.474Z,100.00
2019-05-12T01:57:31.528Z,100.00
2019-05-12T01:58:28.558Z,100.00
2019-05-12T01:59:25.507Z,100.00
2019-05-12T02:00:22.573Z,100.00
2019-05-12T02:01:19.561Z,100.00
2019-05-12T02:02:17.876Z,100.00
2019-05-12T02:03:13.635Z,100.00
2019-05-12T02:04:10.660Z,100.00
2019-05-12T02:05:08.613Z,100.00
2019-05-12T02:06:04.646Z,100.00
2019-05-12T02:07:01.583Z,100.00
2019-05-12T02:07:58.922Z,100.00
2019-05-12T02:08:58.070Z,100.00
2019-05-12T02:09:52.694Z,100.00
2019-05-12T02:10:49.675Z,100.00
2019-05-12T02:11:48.366Z,100.00
2019-05-12T02:12:43.750Z,100.00
2019-05-12T02:13:40.647Z,100.00
2019-05-12T02:14:38.204Z,100.00
2019-05-12T02:15:34.712Z,100.00
2019-05-12T02:16:31.751Z,100.00
2019-05-12T02:17:28.687Z,100.00
2019-05-12T02:18:28.083Z,100.00
2019-05-12T02:19:22.776Z,100.00
2019-05-12T02:20:19.799Z,100.00
2019-05-12T02:21:18.921Z,100.00
2019-05-12T02:22:13.864Z,100.00
2019-05-12T02:23:10.811Z,100.00
2019-05-12T02:24:08.049Z,100.00
2019-05-12T02:25:04.780Z,100.00
2019-05-12T02:26:01.819Z,100.00
2019-05-12T02:26:58.856Z,100.00
2019-05-12T02:27:58.128Z,100.00
2019-05-12T02:28:52.849Z,100.00
2019-05-12T02:29:49.888Z,100.00
2019-05-12T02:30:49.956Z,100.00
2019-05-12T02:31:43.918Z,100.00
2019-05-12T02:32:52.183Z,100.00
2019-05-12T02:33:37.938Z,100.00
2019-05-12T02:34:35.128Z,100.00
2019-05-12T02:35:35.252Z,100.00
2019-05-12T02:36:28.924Z,100.00
2019-05-12T02:37:26.388Z,100.00
2019-05-12T02:38:25.175Z,100.00
2019-05-12T02:39:19.960Z,100.00
2019-05-12T02:40:16.986Z,100.00
2019-05-12T02:41:15.465Z,100.00
2019-05-12T02:42:10.956Z,100.00
2019-05-12T02:43:08.006Z,100.00
2019-05-12T02:44:05.444Z,100.00
2019-05-12T02:45:05.258Z,100.00
2019-05-12T02:45:58.991Z,100.00
2019-05-12T02:46:56.032Z,100.00
2019-05-12T02:47:54.334Z,100.00
2019-05-12T02:48:50.018Z,100.00
2019-05-12T02:49:47.042Z,100.00
2019-05-12T02:50:45.215Z,100.00
2019-05-12T02:51:41.116Z,100.00
2019-05-12T02:52:38.055Z,100.00
2019-05-12T02:53:35.322Z,100.00
2019-05-12T02:54:50.580Z,100.00
2019-05-12T02:55:29.183Z,100.00
2019-05-12T02:56:26.301Z,100.00
2019-05-12T02:57:25.568Z,100.00
2019-05-12T02:58:20.261Z,100.00
2019-05-12T02:59:17.215Z,100.00
2019-05-12T03:00:16.002Z,100.00
2019-05-12T03:01:11.182Z,100.00
2019-05-12T03:02:08.221Z,100.00
2019-05-12T03:03:05.619Z,100.00
2019-05-12T03:04:05.412Z,100.00
2019-05-12T03:04:59.321Z,100.00
2019-05-12T03:05:56.286Z,100.00
2019-05-12T03:06:54.854Z,100.00
2019-05-12T03:07:50.242Z,100.00
2019-05-12T03:08:47.303Z,100.00
2019-05-12T03:09:44.757Z,100.00
2019-05-12T03:10:44.711Z,100.00
2019-05-12T03:11:38.336Z,100.00
2019-05-12T03:12:35.329Z,100.00
2019-05-12T03:13:34.569Z,100.00
2019-05-12T03:14:29.388Z,100.00
2019-05-12T03:15:26.357Z,100.00
2019-05-12T03:16:25.668Z,100.00
2019-05-12T03:17:20.411Z,100.00
2019-05-12T03:18:17.372Z,100.00
2019-05-12T03:19:15.166Z,100.00
2019-05-12T03:20:15.054Z,100.00
2019-05-12T03:21:08.449Z,100.00
2019-05-12T03:22:05.422Z,100.00
2019-05-12T03:23:06.041Z,100.00
2019-05-12T03:23:59.472Z,100.00
2019-05-12T03:25:07.871Z,100.00
2019-05-12T03:25:54.670Z,100.00
2019-05-12T03:26:50.524Z,100.00
2019-05-12T03:27:47.525Z,100.00
2019-05-12T03:28:44.799Z,100.00
2019-05-12T03:29:44.783Z,100.00
2019-05-12T03:30:40.716Z,100.00
2019-05-12T03:31:39.867Z,100.00
2019-05-12T03:32:37.278Z,100.00
2019-05-12T03:33:40.635Z,100.00
2019-05-12T03:34:29.315Z,100.00
2019-05-12T03:35:32.729Z,100.00
2019-05-12T03:36:20.668Z,100.00
2019-05-12T03:37:18.515Z,100.00
2019-05-12T03:38:15.096Z,100.00
2019-05-12T03:39:14.715Z,100.00
2019-05-12T03:40:08.692Z,100.00
2019-05-12T03:41:05.682Z,100.00
2019-05-12T03:42:05.087Z,100.00
2019-05-12T03:42:59.603Z,100.00
2019-05-12T03:43:56.645Z,100.00
2019-05-12T03:44:54.755Z,100.00
2019-05-12T03:45:50.730Z,100.00
2019-05-12T03:46:47.653Z,100.00
2019-05-12T03:47:45.711Z,100.00
2019-05-12T03:48:45.187Z,100.00
2019-05-12T03:49:38.758Z,100.00
2019-05-12T03:50:36.338Z,100.00
2019-05-12T03:51:34.932Z,100.00
2019-05-12T03:52:29.774Z,100.00
2019-05-12T03:53:26.708Z,100.00
2019-05-12T03:54:24.541Z,100.00
2019-05-12T03:55:31.637Z,100.00
2019-05-12T03:56:17.810Z,100.00
2019-05-12T03:57:15.222Z,100.00
2019-05-12T03:58:14.332Z,100.00
2019-05-12T03:59:08.870Z,100.00
2019-05-12T04:00:05.856Z,100.00
2019-05-12T04:01:04.714Z,100.00
2019-05-12T04:01:59.939Z,100.00
2019-05-12T04:02:56.885Z,100.00
2019-05-12T04:03:54.285Z,100.00
2019-05-12T04:04:50.865Z,100.00
2019-05-12T04:05:47.894Z,100.00
2019-05-12T04:06:45.450Z,100.00
2019-05-12T04:07:44.801Z,100.00
2019-05-12T04:08:38.905Z,100.00
2019-05-12T04:09:35.940Z,100.00
2019-05-12T04:10:35.406Z,100.00
2019-05-12T04:11:29.930Z,100.00
2019-05-12T04:12:26.959Z,100.00
2019-05-12T04:13:26.537Z,100.00
2019-05-12T04:14:20.962Z,100.00
2019-05-12T04:15:17.969Z,100.00
2019-05-12T04:16:16.449Z,100.00
2019-05-12T04:17:14.772Z,100.00
2019-05-12T04:18:08.973Z,100.00
2019-05-12T04:19:06.069Z,100.00
2019-05-12T04:20:04.814Z,100.00
2019-05-12T04:21:00.081Z,100.00
2019-05-12T04:21:57.041Z,100.00
2019-05-12T04:22:54.854Z,100.00
2019-05-12T04:23:51.090Z,100.00
2019-05-12T04:24:48.029Z,100.00
2019-05-12T04:25:52.287Z,100.00
2019-05-12T04:26:44.936Z,100.00
2019-05-12T04:27:39.152Z,100.00
2019-05-12T04:28:36.071Z,100.00
2019-05-12T04:29:34.877Z,100.00
2019-05-12T04:30:30.157Z,100.00
2019-05-12T04:31:27.200Z,100.00
2019-05-12T04:32:25.030Z,100.00
2019-05-12T04:33:21.154Z,100.00
2019-05-12T04:34:19.266Z,100.00
2019-05-12T04:35:15.323Z,100.00
2019-05-12T04:36:14.807Z,100.00
2019-05-12T04:37:09.218Z,100.00
2019-05-12T04:38:06.239Z,100.00
2019-05-12T04:39:04.300Z,100.00
2019-05-12T04:40:00.227Z,100.00
2019-05-12T04:40:57.257Z,100.00
2019-05-12T04:41:55.138Z,100.00
2019-05-12T04:42:54.589Z,100.00
2019-05-12T04:43:48.263Z,100.00
2019-05-12T04:44:45.297Z,100.00
2019-05-12T04:45:44.809Z,100.00
2019-05-12T04:46:39.797Z,100.00
2019-05-12T04:47:36.321Z,100.00
2019-05-12T04:48:35.971Z,100.00
2019-05-12T04:49:30.390Z,100.00
2019-05-12T04:50:27.319Z,100.00
2019-05-12T04:51:25.898Z,100.00
2019-05-12T04:52:24.631Z,100.00
2019-05-12T04:53:18.435Z,100.00
2019-05-12T04:54:15.637Z,100.00
2019-05-12T04:55:15.113Z,100.00
2019-05-12T04:56:16.812Z,100.00
2019-05-12T04:57:06.395Z,100.00
2019-05-12T04:58:04.426Z,100.00
2019-05-12T04:59:00.451Z,100.00
2019-05-12T04:59:57.406Z,100.00
2019-05-12T05:00:54.423Z,100.00
2019-05-12T05:01:53.999Z,100.00
2019-05-12T05:02:48.519Z,100.00
2019-05-12T05:03:45.536Z,100.00
2019-05-12T05:04:44.102Z,100.00
2019-05-12T05:05:39.523Z,100.00
2019-05-12T05:06:36.546Z,100.00
2019-05-12T05:07:35.946Z,100.00
2019-05-12T05:08:30.532Z,100.00
2019-05-12T05:09:27.555Z,100.00
2019-05-12T05:10:25.111Z,100.00
2019-05-12T05:11:21.665Z,100.00
2019-05-12T05:12:18.567Z,100.00
2019-05-12T05:13:15.618Z,100.00
2019-05-12T05:14:14.286Z,100.00
2019-05-12T05:15:09.576Z,100.00
2019-05-12T05:16:06.620Z,100.00
2019-05-12T05:17:05.536Z,100.00
2019-05-12T05:18:00.607Z,100.00
2019-05-12T05:18:57.623Z,100.00
2019-05-12T05:19:54.660Z,100.00
2019-05-12T05:20:54.007Z,100.00
2019-05-12T05:21:48.652Z,100.00
2019-05-12T05:22:45.671Z,100.00
2019-05-12T05:23:44.274Z,100.00
2019-05-12T05:24:39.788Z,100.00
2019-05-12T05:25:36.682Z,100.00
2019-05-12T05:26:37.136Z,100.00
2019-05-12T05:27:30.778Z,100.00
2019-05-12T05:28:27.704Z,100.00
2019-05-12T05:29:24.730Z,100.00
2019-05-12T05:30:24.193Z,100.00
2019-05-12T05:31:18.817Z,100.00
2019-05-12T05:32:15.738Z,100.00
2019-05-12T05:33:14.442Z,100.00
2019-05-12T05:34:09.904Z,100.00
2019-05-12T05:35:07.736Z,100.00
2019-05-12T05:36:03.787Z,100.00
2019-05-12T05:37:01.631Z,100.00
2019-05-12T05:37:57.884Z,100.00
2019-05-12T05:38:59.639Z,100.00
2019-05-12T05:39:53.912Z,100.00
2019-05-12T05:40:48.909Z,100.00
2019-05-12T05:41:50.923Z,100.00
2019-05-12T05:42:43.967Z,100.00
2019-05-12T05:43:39.974Z,100.00
2019-05-12T05:44:38.139Z,100.00
2019-05-12T05:45:35.155Z,100.00
2019-05-12T05:46:30.891Z,100.00
2019-05-12T05:47:28.802Z,100.00
2019-05-12T05:48:25.062Z,100.00
2019-05-12T05:49:23.777Z,100.00
2019-05-12T05:50:25.129Z,100.00
2019-05-12T05:51:16.023Z,100.00
2019-05-12T05:52:13.753Z,100.00
2019-05-12T05:53:17.424Z,100.00
2019-05-12T05:54:07.002Z,100.00
2019-05-12T05:55:05.781Z,100.00
2019-05-12T05:56:01.107Z,100.00
2019-05-12T05:57:02.614Z,100.00
2019-05-12T05:57:59.804Z,100.00
2019-05-12T05:58:54.645Z,100.00
2019-05-12T05:59:49.120Z,100.00
2019-05-12T06:00:46.047Z,100.00
2019-05-12T06:01:47.161Z,100.00
2019-05-12T06:02:40.656Z,100.00
2019-05-12T06:03:37.077Z,100.00
2019-05-12T06:04:34.308Z,100.00
2019-05-12T06:05:31.176Z,100.00
2019-05-12T06:06:28.168Z,100.00
2019-05-12T06:07:34.883Z,100.00
2019-05-12T06:08:23.790Z,100.00
2019-05-12T06:09:19.192Z,100.00
2019-05-12T06:10:16.134Z,100.00
2019-05-12T06:11:16.898Z,100.00
2019-05-12T06:12:10.247Z,100.00
2019-05-12T06:13:07.775Z,100.00
2019-05-12T06:14:11.398Z,100.00
2019-05-12T06:15:01.320Z,100.00
2019-05-12T06:15:58.274Z,100.00
2019-05-12T06:16:55.272Z,99.61
2019-05-12T06:17:53.832Z,99.58
2019-05-12T06:18:49.249Z,99.29
2019-05-12T06:19:46.297Z,98.88
2019-05-12T06:20:43.820Z,99.47
2019-05-12T06:21:40.261Z,99.46
2019-05-12T06:22:37.353Z,98.81
2019-05-12T06:23:39.043Z,98.79
2019-05-12T06:24:33.343Z,98.59
2019-05-12T06:25:41.165Z,98.41
2019-05-12T06:26:30.823Z,98.09
2019-05-12T06:27:24.330Z,97.51
2019-05-12T06:28:19.327Z,96.48
2019-05-12T06:29:20.705Z,95.66
2019-05-12T06:30:14.821Z,96.05
2019-05-12T06:31:10.425Z,96.66
2019-05-12T06:32:10.786Z,96.90
2019-05-12T06:33:04.410Z,96.70
2019-05-12T06:34:06.294Z,97.04
2019-05-12T06:35:01.520Z,96.63
2019-05-12T06:35:55.391Z,95.99
2019-05-12T06:36:56.891Z,95.55
2019-05-12T06:37:57.759Z,95.18
2019-05-12T06:38:46.523Z,93.64
2019-05-12T06:39:43.664Z,92.64
2019-05-12T06:40:42.412Z,91.62
2019-05-12T06:41:37.540Z,91.93
2019-05-12T06:42:34.463Z,90.83
2019-05-12T06:43:35.222Z,91.27
2019-05-12T06:44:28.561Z,92.41
2019-05-12T06:45:28.413Z,92.75
2019-05-12T06:46:23.643Z,91.45
2019-05-12T06:47:19.550Z,91.30
2019-05-12T06:48:19.275Z,90.47
2019-05-12T06:49:17.343Z,90.38
2019-05-12T06:50:10.581Z,90.46
2019-05-12T06:51:09.101Z,90.99
2019-05-12T06:52:07.045Z,91.04
2019-05-12T06:53:01.573Z,91.07
2019-05-12T06:54:00.916Z,91.16
2019-05-12T06:54:56.804Z,91.52
2019-05-12T06:55:54.005Z,91.87
2019-05-12T06:56:50.073Z,92.75
2019-05-12T06:57:50.126Z,91.00
2019-05-12T06:58:44.302Z,89.71
2019-05-12T06:59:42.015Z,88.31
2019-05-12T07:00:37.756Z,87.53
2019-05-12T07:01:34.742Z,87.00
2019-05-12T07:02:38.629Z,87.03
2019-05-12T07:03:30.794Z,86.48
2019-05-12T07:04:25.807Z,86.50
2019-05-12T07:05:23.343Z,86.17
2019-05-12T07:06:20.081Z,85.74
2019-05-12T07:07:16.727Z,84.62
2019-05-12T07:08:20.003Z,84.71
2019-05-12T07:09:16.365Z,83.69
2019-05-12T07:10:11.618Z,83.73
2019-05-12T07:11:06.095Z,84.04
2019-05-12T07:12:03.780Z,84.41
2019-05-12T07:13:02.624Z,84.77
2019-05-12T07:14:04.129Z,84.92
2019-05-12T07:14:55.404Z,84.85
2019-05-12T07:15:49.948Z,83.99
2019-05-12T07:16:46.936Z,83.41
2019-05-12T07:17:49.164Z,83.32
2019-05-12T07:18:43.618Z,83.92
2019-05-12T07:19:37.969Z,84.01
2019-05-12T07:20:38.833Z,84.56
2019-05-12T07:21:33.532Z,84.49
2019-05-12T07:22:31.803Z,84.44
2019-05-12T07:23:30.058Z,84.87
2019-05-12T07:24:23.882Z,84.80
2019-05-12T07:25:24.604Z,84.93
2019-05-12T07:26:19.357Z,85.11
2019-05-12T07:27:14.190Z,85.07
2019-05-12T07:28:10.942Z,84.40
2019-05-12T07:29:08.012Z,83.96
2019-05-12T07:30:05.024Z,83.59
2019-05-12T07:31:03.894Z,82.94
2019-05-12T07:31:58.979Z,82.12
2019-05-12T07:32:59.756Z,82.50
2019-05-12T07:33:54.209Z,82.16
2019-05-12T07:34:50.083Z,81.05
2019-05-12T07:35:47.072Z,81.47
2019-05-12T07:36:44.364Z,81.54
2019-05-12T07:37:43.520Z,81.58
2019-05-12T07:38:38.047Z,81.10
2019-05-12T07:39:37.017Z,80.78
2019-05-12T07:40:34.709Z,80.93
2019-05-12T07:41:29.243Z,80.34
2019-05-12T07:42:31.529Z,80.59
2019-05-12T07:43:24.264Z,80.02
2019-05-12T07:44:22.211Z,80.49
2019-05-12T07:45:22.161Z,80.43
2019-05-12T07:46:14.156Z,81.46
2019-05-12T07:47:11.173Z,80.53
2019-05-12T07:48:10.163Z,79.36
2019-05-12T07:49:05.149Z,79.04
2019-05-12T07:50:04.294Z,78.15
2019-05-12T07:51:00.679Z,79.03
2019-05-12T07:51:56.358Z,78.44
2019-05-12T07:52:54.292Z,77.95
2019-05-12T07:53:57.160Z,77.59
2019-05-12T07:54:47.327Z,78.07
2019-05-12T07:55:47.566Z,77.88
2019-05-12T07:56:44.085Z,78.33
2019-05-12T07:57:51.986Z,77.91
2019-05-12T07:58:35.379Z,77.15
2019-05-12T07:59:39.006Z,76.53
2019-05-12T08:00:29.328Z,73.88
2019-05-12T08:01:26.427Z,74.17
2019-05-12T08:02:31.785Z,75.12
2019-05-12T08:03:21.374Z,75.66
2019-05-12T08:04:17.381Z,75.65
2019-05-12T08:05:19.571Z,76.23
2019-05-12T08:06:13.858Z,76.96
2019-05-12T08:07:08.363Z,76.79
2019-05-12T08:08:10.492Z,76.69
2019-05-12T08:09:04.132Z,77.04
2019-05-12T08:09:59.445Z,77.44
2019-05-12T08:10:56.450Z,77.52
2019-05-12T08:11:54.075Z,77.51
2019-05-12T08:12:51.073Z,76.77
2019-05-12T08:13:47.438Z,76.54
2019-05-12T08:14:44.460Z,76.56
2019-05-12T08:15:45.786Z,76.63
2019-05-12T08:16:38.558Z,75.26
2019-05-12T08:17:35.554Z,74.08
2019-05-12T08:18:36.764Z,72.98
2019-05-12T08:19:29.535Z,72.70
2019-05-12T08:20:26.591Z,69.28
2019-05-12T08:21:24.272Z,67.67
2019-05-12T08:22:25.034Z,65.43
2019-05-12T08:23:17.622Z,64.52
2019-05-12T08:24:14.814Z,62.37
2019-05-12T08:25:13.470Z,60.70
2019-05-12T08:26:12.418Z,59.84
2019-05-12T08:27:06.617Z,57.96
2019-05-12T08:28:12.413Z,56.00
2019-05-12T08:28:59.637Z,55.14
2019-05-12T08:30:00.954Z,52.08
2019-05-12T08:30:54.835Z,52.66
2019-05-12T08:31:50.624Z,51.70
2019-05-12T08:32:47.689Z,51.01
2019-05-12T08:33:44.720Z,50.30
2019-05-12T08:34:43.726Z,49.07
2019-05-12T08:35:38.991Z,48.43
2019-05-12T08:36:35.738Z,49.82
2019-05-12T08:37:33.321Z,48.45
2019-05-12T08:38:29.769Z,47.44
2019-05-12T08:39:26.698Z,47.37
2019-05-12T08:40:24.805Z,48.35
2019-05-12T08:41:20.819Z,49.26
2019-05-12T08:42:17.957Z,47.95
2019-05-12T08:43:15.073Z,46.96
2019-05-12T08:44:13.556Z,47.64
2019-05-12T08:45:15.286Z,46.66
2019-05-12T08:46:11.906Z,44.93
2019-05-12T08:47:03.903Z,44.09
2019-05-12T08:47:59.936Z,46.39
2019-05-12T08:49:00.694Z,48.53
2019-05-12T08:49:58.341Z,51.40
2019-05-12T08:50:50.885Z,53.20
2019-05-12T08:51:49.456Z,55.85
2019-05-12T08:52:45.064Z,56.90
2019-05-12T08:53:43.995Z,58.27
2019-05-12T08:54:39.636Z,59.56
2019-05-12T08:55:36.138Z,60.99
2019-05-12T08:56:33.339Z,62.17
2019-05-12T08:57:34.851Z,62.87
2019-05-12T08:58:33.553Z,62.74
2019-05-12T08:59:27.209Z,63.79
2019-05-12T09:00:20.952Z,64.28
2019-05-12T09:01:20.381Z,64.62
2019-05-12T09:02:15.141Z,65.06
2019-05-12T09:03:14.054Z,63.97
2019-05-12T09:04:13.317Z,63.66
2019-05-12T09:05:06.101Z,64.37
2019-05-12T09:06:04.041Z,64.69
2019-05-12T09:07:00.060Z,64.96
2019-05-12T09:07:57.046Z,65.00
2019-05-12T09:08:54.313Z,65.14
2019-05-12T09:09:53.253Z,64.59
2019-05-12T09:10:47.991Z,65.86
2019-05-12T09:11:45.092Z,66.19
2019-05-12T09:12:44.101Z,66.23
2019-05-12T09:13:39.113Z,64.52
2019-05-12T09:14:41.293Z,64.46
2019-05-12T09:15:34.644Z,62.09
2019-05-12T09:16:30.066Z,56.73
2019-05-12T09:17:27.165Z,55.73
2019-05-12T09:18:33.925Z,55.25
2019-05-12T09:19:24.969Z,56.07
2019-05-12T09:20:18.226Z,56.96
2019-05-12T09:21:15.171Z,59.58
2019-05-12T09:22:16.696Z,60.53
2019-05-12T09:23:09.286Z,60.45
2019-05-12T09:24:06.255Z,59.80
2019-05-12T09:25:06.774Z,59.04
2019-05-12T09:26:00.246Z,59.35
2019-05-12T09:26:58.899Z,61.46
2019-05-12T09:27:54.350Z,62.60
2019-05-12T09:28:51.312Z,63.31
2019-05-12T09:29:48.294Z,63.27
2019-05-12T09:30:49.330Z,58.97
2019-05-12T09:31:44.029Z,54.22
2019-05-12T09:32:44.424Z,50.58
2019-05-12T09:33:36.320Z,48.90
2019-05-12T09:34:33.681Z,45.18
2019-05-12T09:35:35.020Z,43.12
2019-05-12T09:36:27.351Z,42.17
2019-05-12T09:37:24.437Z,42.49
2019-05-12T09:38:23.135Z,40.52
2019-05-12T09:39:18.293Z,40.66
2019-05-12T09:40:20.734Z,41.01
2019-05-12T09:41:13.977Z,41.67
2019-05-12T09:42:09.385Z,38.53
2019-05-12T09:43:10.462Z,37.43
2019-05-12T09:44:04.555Z,37.67
2019-05-12T09:45:06.109Z,37.99
2019-05-12T09:45:57.375Z,38.36
2019-05-12T09:46:54.428Z,38.48
2019-05-12T09:47:51.448Z,38.36
2019-05-12T09:48:52.318Z,38.40
2019-05-12T09:49:45.428Z,40.37
2019-05-12T09:50:45.914Z,41.37
2019-05-12T09:51:45.725Z,42.88
2019-05-12T09:52:36.533Z,42.91
2019-05-12T09:53:34.135Z,42.75
2019-05-12T09:54:35.269Z,42.41
2019-05-12T09:55:27.752Z,42.07
2019-05-12T09:56:24.563Z,42.57
2019-05-12T09:57:23.797Z,41.72
2019-05-12T09:58:23.069Z,40.80
2019-05-12T09:59:22.815Z,43.37
2019-05-12T10:00:13.733Z,43.55
2019-05-12T10:01:09.589Z,45.17
2019-05-12T10:02:13.959Z,44.91
2019-05-12T10:03:04.857Z,45.98
2019-05-12T10:04:00.561Z,46.40
2019-05-12T10:05:00.777Z,48.55
2019-05-12T10:05:54.580Z,50.09
2019-05-12T10:06:53.467Z,51.11
2019-05-12T10:07:48.602Z,52.49
2019-05-12T10:08:45.609Z,52.52
2019-05-12T10:09:44.023Z,53.30
2019-05-12T10:10:40.787Z,54.29
2019-05-12T10:11:36.642Z,55.61
2019-05-12T10:12:36.576Z,56.71
2019-05-12T10:13:30.658Z,57.25
2019-05-12T10:14:27.684Z,56.95
2019-05-12T10:15:28.667Z,56.11
2019-05-12T10:16:23.904Z,55.41
2019-05-12T10:17:20.319Z,53.25
2019-05-12T10:18:15.821Z,53.42
2019-05-12T10:19:14.474Z,51.58
2019-05-12T10:20:09.738Z,51.78
2019-05-12T10:21:10.169Z,51.83
2019-05-12T10:22:03.760Z,52.11
2019-05-12T10:23:00.760Z,52.00
2019-05-12T10:24:01.782Z,52.45
2019-05-12T10:24:58.476Z,54.47
2019-05-12T10:25:53.752Z,53.80
2019-05-12T10:26:50.594Z,53.52
2019-05-12T10:27:45.952Z,53.78
2019-05-12T10:28:51.026Z,54.22
2019-05-12T10:29:40.389Z,51.50
2019-05-12T10:30:36.954Z,52.69
2019-05-12T10:31:35.635Z,53.56
2019-05-12T10:32:30.928Z,52.90
2019-05-12T10:33:28.014Z,53.10
2019-05-12T10:34:29.299Z,51.97
2019-05-12T10:35:24.529Z,51.80
2019-05-12T10:36:18.927Z,52.27
2019-05-12T10:37:19.233Z,51.90
2019-05-12T10:38:13.683Z,49.86
2019-05-12T10:39:09.936Z,48.56
2019-05-12T10:40:07.003Z,49.02
2019-05-12T10:41:04.403Z,50.24
2019-05-12T10:42:01.096Z,51.07
2019-05-12T10:42:58.031Z,50.75
2019-05-12T10:43:57.777Z,49.43
2019-05-12T10:44:54.483Z,50.30
2019-05-12T10:45:49.145Z,51.59
2019-05-12T10:46:46.131Z,50.75
2019-05-12T10:47:43.115Z,50.49
2019-05-12T10:48:40.253Z,50.11
2019-05-12T10:49:37.136Z,50.58
2019-05-12T10:50:34.411Z,50.68
2019-05-12T10:51:31.124Z,49.86
2019-05-12T10:52:29.521Z,49.81
2019-05-12T10:53:25.187Z,51.42
2019-05-12T10:54:24.197Z,51.93
2019-05-12T10:55:19.179Z,53.05
2019-05-12T10:56:16.246Z,52.56
2019-05-12T10:57:14.148Z,53.27
2019-05-12T10:58:10.147Z,51.97
2019-05-12T10:59:07.217Z,52.41
2019-05-12T11:00:04.454Z,52.11
2019-05-12T11:01:05.236Z,51.88
2019-05-12T11:01:58.238Z,50.84
2019-05-12T11:02:55.307Z,50.52
2019-05-12T11:03:52.311Z,48.93
2019-05-12T11:04:49.278Z,49.71
2019-05-12T11:05:46.372Z,49.29
2019-05-12T11:06:46.841Z,50.90
2019-05-12T11:07:40.248Z,50.09
2019-05-12T11:08:41.353Z,50.41
2019-05-12T11:09:34.636Z,51.18
2019-05-12T11:10:31.448Z,52.47
2019-05-12T11:11:32.847Z,53.01
2019-05-12T11:12:29.100Z,52.16
2019-05-12T11:13:23.377Z,53.41
2019-05-12T11:14:20.300Z,54.23
2019-05-12T11:15:16.436Z,53.46
2019-05-12T11:16:14.744Z,53.18
2019-05-12T11:17:10.507Z,53.83
2019-05-12T11:18:07.463Z,54.39
2019-05-12T11:19:08.748Z,55.30
2019-05-12T11:20:03.978Z,55.21
2019-05-12T11:20:58.554Z,52.79
2019-05-12T11:21:55.437Z,54.30
2019-05-12T11:22:54.281Z,52.41
2019-05-12T11:23:49.477Z,51.86
2019-05-12T11:24:46.599Z,52.26
2019-05-12T11:25:44.023Z,50.85
2019-05-12T11:26:40.526Z,50.98
2019-05-12T11:27:37.565Z,50.84
2019-05-12T11:28:34.567Z,51.12
2019-05-12T11:29:43.313Z,50.03
2019-05-12T11:30:28.573Z,49.92
2019-05-12T11:31:25.842Z,50.02
2019-05-12T11:32:23.225Z,47.61
2019-05-12T11:33:19.690Z,47.95
2019-05-12T11:34:16.683Z,48.16
2019-05-12T11:35:14.345Z,49.26
2019-05-12T11:36:10.649Z,49.04
2019-05-12T11:37:07.628Z,49.87
2019-05-12T11:38:04.859Z,50.19
2019-05-12T11:39:03.589Z,49.48
2019-05-12T11:39:58.712Z,50.10
2019-05-12T11:40:55.656Z,48.79
2019-05-12T11:41:55.232Z,50.05
2019-05-12T11:42:59.128Z,48.55
2019-05-12T11:43:46.691Z,49.21
2019-05-12T11:44:44.287Z,49.79
2019-05-12T11:45:40.771Z,49.73
2019-05-12T11:46:37.782Z,47.20
2019-05-12T11:47:37.286Z,48.71
2019-05-12T11:48:33.741Z,49.67
2019-05-12T11:49:28.786Z,50.02
2019-05-12T11:50:25.746Z,50.91
2019-05-12T11:51:26.970Z,51.15
2019-05-12T11:52:19.818Z,50.06
2019-05-12T11:53:16.855Z,48.38
2019-05-12T11:54:13.922Z,48.06
2019-05-12T11:55:10.879Z,47.25
2019-05-12T11:56:09.236Z,47.86
2019-05-12T11:57:04.763Z,48.24
2019-05-12T11:58:06.890Z,48.79
2019-05-12T11:58:58.885Z,47.77
2019-05-12T11:59:16.878Z,47.99
2019-05-12T12:00:13.901Z,48.96
2019-05-12T12:01:13.319Z,47.48